createdAt,value
2024-02-19T00:01:18.040Z,9.48
2024-02-19T00:06:39.128Z,13.07
2024-02-19T00:11:59.989Z,10.52
2024-02-19T00:17:21.219Z,8.30
2024-02-19T00:22:42.104Z,6.47
2024-02-19T00:28:03.156Z,7.20
2024-02-19T00:33:24.320Z,9.10
2024-02-19T00:38:45.117Z,10.32
2024-02-19T00:44:06.315Z,17.42
2024-02-19T00:49:27.561Z,14.80
2024-02-19T00:54:48.374Z,14.32
2024-02-19T01:00:09.528Z,19.35
2024-02-19T01:05:30.412Z,23.70
2024-02-19T01:10:51.331Z,11.05
2024-02-19T01:16:12.414Z,19.67
2024-02-19T01:21:33.279Z,15.32
2024-02-19T01:26:54.447Z,15.27
2024-02-19T01:32:15.760Z,8.25
2024-02-19T01:37:36.772Z,13.80
2024-02-19T01:43:02.633Z,6.85
2024-02-19T01:48:23.771Z,7.43
2024-02-19T01:53:45.574Z,4.35
2024-02-19T01:59:08.216Z,9.40
2024-02-19T02:04:29.446Z,5.90
2024-02-19T02:09:50.807Z,10.48
2024-02-19T02:15:12.132Z,8.77
2024-02-19T02:20:33.612Z,5.47
2024-02-19T02:25:54.528Z,5.60
2024-02-19T02:31:15.917Z,4.00
2024-02-19T02:36:37.252Z,2.83
2024-02-19T02:41:58.130Z,11.35
2024-02-19T02:47:19.139Z,5.00
2024-02-19T02:52:40.353Z,6.90
2024-02-19T02:58:01.356Z,6.35
2024-02-19T03:03:22.266Z,3.08
2024-02-19T03:08:43.165Z,6.53
2024-02-19T03:14:04.348Z,7.03
2024-02-19T03:19:25.495Z,2.85
2024-02-19T03:24:46.658Z,2.97
2024-02-19T03:30:08.141Z,9.52
2024-02-19T03:35:28.991Z,6.10
2024-02-19T03:40:49.833Z,6.40
2024-02-19T03:46:10.712Z,8.90
2024-02-19T03:51:31.725Z,5.43
2024-02-19T03:56:52.710Z,4.65
2024-02-19T04:02:13.901Z,5.00
2024-02-19T04:07:34.785Z,4.18
2024-02-19T04:12:55.814Z,3.65
2024-02-19T04:18:16.983Z,4.25
2024-02-19T04:23:38.254Z,5.70
2024-02-19T04:28:59.303Z,3.33
2024-02-19T04:34:20.388Z,4.97
2024-02-19T04:39:41.306Z,4.18
2024-02-19T04:45:02.469Z,6.45
2024-02-19T04:50:23.416Z,8.23
2024-02-19T04:55:44.602Z,3.45
2024-02-19T05:01:05.737Z,5.22
2024-02-19T05:06:26.649Z,7.20
2024-02-19T05:11:47.542Z,10.50
2024-02-19T05:17:08.692Z,14.43
2024-02-19T05:22:29.814Z,21.25
2024-02-19T05:27:50.621Z,18.88
2024-02-19T05:33:12.662Z,12.88
2024-02-19T05:38:35.518Z,21.13
2024-02-19T05:43:57.746Z,22.63
2024-02-19T05:49:19.086Z,11.68
2024-02-19T05:54:40.015Z,16.67
2024-02-19T06:00:01.146Z,11.77
2024-02-19T06:05:21.937Z,19.42
2024-02-19T06:10:43.066Z,18.42
2024-02-19T06:16:04.253Z,14.32
2024-02-19T06:21:25.050Z,12.55
2024-02-19T06:26:45.950Z,9.73
2024-02-19T06:32:07.393Z,9.00
2024-02-19T06:37:28.518Z,15.45
2024-02-19T06:42:50.904Z,23.88
2024-02-19T06:48:13.316Z,21.20
2024-02-19T06:53:34.071Z,22.58
2024-02-19T06:58:55.190Z,22.77
2024-02-19T07:04:16.392Z,26.80
2024-02-19T07:09:37.956Z,27.65
2024-02-19T07:14:59.238Z,22.88
2024-02-19T07:20:20.682Z,19.50
2024-02-19T07:25:42.022Z,22.33
2024-02-19T07:31:03.037Z,17.42
2024-02-19T07:36:24.367Z,28.33
2024-02-19T07:41:45.487Z,18.92
2024-02-19T07:47:06.752Z,14.23
2024-02-19T07:52:28.095Z,18.48
2024-02-19T07:57:48.986Z,23.30
2024-02-19T08:03:09.907Z,17.10
2024-02-19T08:08:30.952Z,18.85
2024-02-19T08:13:53.235Z,23.15
2024-02-19T08:19:14.286Z,21.17
2024-02-19T08:24:36.861Z,15.80
2024-02-19T08:29:57.810Z,19.85
2024-02-19T08:35:19.179Z,18.15
2024-02-19T08:40:40.675Z,16.63
2024-02-19T08:46:01.587Z,13.05
2024-02-19T08:51:24.781Z,16.83
2024-02-19T08:56:46.177Z,14.10
2024-02-19T09:02:07.590Z,14.55
2024-02-19T09:07:28.904Z,12.25
2024-02-19T09:12:49.878Z,18.20
2024-02-19T09:18:10.700Z,15.60
2024-02-19T09:23:31.811Z,14.63
2024-02-19T09:28:52.798Z,16.25
2024-02-19T09:34:13.804Z,13.57
2024-02-19T09:39:34.821Z,15.60
2024-02-19T09:44:55.995Z,17.27
2024-02-19T09:50:17.646Z,15.73
2024-02-19T09:55:39.844Z,20.20
2024-02-19T10:01:00.820Z,14.32
2024-02-19T10:06:21.947Z,13.13
2024-02-19T10:11:43.361Z,12.85
2024-02-19T10:17:04.473Z,16.85
2024-02-19T10:22:25.781Z,11.90
2024-02-19T10:27:46.773Z,20.08
2024-02-19T10:33:07.842Z,15.15
2024-02-19T10:38:28.826Z,12.77
2024-02-19T10:43:50.832Z,13.02
2024-02-19T10:49:11.812Z,19.08
2024-02-19T10:54:33.270Z,17.17
2024-02-19T11:00:14.971Z,13.98
2024-02-19T11:05:39.894Z,16.73
2024-02-19T11:11:01.336Z,20.10
2024-02-19T11:16:27.425Z,19.73
2024-02-19T11:21:48.581Z,16.60
2024-02-19T11:27:10.119Z,15.65
2024-02-19T11:32:31.054Z,16.45
2024-02-19T11:37:51.925Z,15.98
2024-02-19T11:43:13.124Z,11.27
2024-02-19T11:48:34.336Z,16.85
2024-02-19T11:53:55.794Z,16.35
2024-02-19T11:59:17.534Z,17.50
2024-02-19T12:04:39.569Z,16.38
2024-02-19T12:10:00.957Z,14.88
2024-02-19T12:15:21.895Z,13.75
2024-02-19T12:20:43.136Z,13.35
2024-02-19T12:26:05.695Z,8.77
2024-02-19T12:31:28.543Z,15.40
2024-02-19T12:36:49.743Z,13.35
2024-02-19T12:42:11.553Z,13.43
2024-02-19T12:47:32.848Z,11.40
2024-02-19T12:52:53.720Z,17.33
2024-02-19T12:58:14.841Z,11.05
2024-02-19T13:03:35.688Z,13.43
2024-02-19T13:08:57.053Z,10.85
2024-02-19T13:14:18.183Z,12.25
2024-02-19T13:19:39.519Z,14.18
2024-02-19T13:25:00.944Z,13.48
2024-02-19T13:30:21.984Z,12.68
2024-02-19T13:35:43.133Z,14.55
2024-02-19T13:41:04.272Z,14.25
2024-02-19T13:46:25.794Z,11.48
2024-02-19T13:51:46.726Z,12.88
2024-02-19T13:57:08.513Z,12.02
2024-02-19T14:02:29.876Z,11.23
2024-02-19T14:07:50.900Z,13.13
2024-02-19T14:13:11.912Z,13.63
2024-02-19T14:18:32.869Z,15.70
2024-02-19T14:23:53.848Z,13.43
2024-02-19T14:29:14.733Z,14.20
2024-02-19T14:34:36.027Z,18.65
2024-02-19T14:39:57.184Z,15.02
2024-02-19T14:45:18.188Z,24.10
2024-02-19T14:50:39.275Z,18.55
2024-02-19T14:56:00.605Z,13.75
2024-02-19T15:01:21.740Z,17.58
2024-02-19T15:06:42.634Z,14.60
2024-02-19T15:12:04.183Z,15.48
2024-02-19T15:17:25.478Z,19.08
2024-02-19T15:22:46.544Z,15.50
2024-02-19T15:28:07.389Z,18.10
2024-02-19T15:33:28.360Z,18.60
2024-02-19T15:38:49.434Z,16.90
2024-02-19T15:44:10.614Z,13.43
2024-02-19T15:49:31.811Z,10.60
2024-02-19T15:54:52.852Z,11.48
2024-02-19T16:00:14.320Z,13.90
2024-02-19T16:05:35.250Z,11.40
2024-02-19T16:10:56.240Z,9.25
2024-02-19T16:16:17.619Z,15.02
2024-02-19T16:21:39.021Z,6.70
2024-02-19T16:27:00.008Z,10.68
2024-02-19T16:32:20.968Z,13.85
2024-02-19T16:37:42.009Z,15.43
2024-02-19T16:43:02.901Z,15.35
2024-02-19T16:48:23.942Z,14.43
2024-02-19T16:53:46.176Z,32.70
2024-02-19T16:59:07.452Z,30.27
2024-02-19T17:04:28.398Z,22.20
2024-02-19T17:09:49.534Z,16.83
2024-02-19T17:15:10.449Z,19.08
2024-02-19T17:20:31.530Z,20.30
2024-02-19T17:25:52.675Z,19.65
2024-02-19T17:31:13.795Z,13.90
2024-02-19T17:36:34.786Z,21.52
2024-02-19T17:41:56.001Z,17.50
2024-02-19T17:47:17.253Z,19.67
2024-02-19T17:52:39.127Z,21.58
2024-02-19T17:58:00.004Z,11.68
2024-02-19T18:03:20.845Z,18.67
2024-02-19T18:08:41.785Z,19.58
2024-02-19T18:14:02.677Z,16.52
2024-02-19T18:19:23.932Z,15.07
2024-02-19T18:24:44.927Z,19.00
2024-02-19T18:30:06.371Z,20.60
2024-02-19T18:35:28.288Z,13.90
2024-02-19T18:40:49.234Z,16.63
2024-02-19T18:46:10.207Z,12.27
2024-02-19T18:51:31.116Z,15.48
2024-02-19T18:56:52.030Z,11.23
2024-02-19T19:02:13.235Z,9.98
2024-02-19T19:07:34.569Z,10.77
2024-02-19T19:12:55.661Z,14.63
2024-02-19T19:18:16.789Z,14.82
2024-02-19T19:23:37.929Z,17.42
2024-02-19T19:28:59.219Z,11.48
2024-02-19T19:34:20.168Z,12.73
2024-02-19T19:39:41.097Z,21.25
2024-02-19T19:45:02.020Z,16.58
2024-02-19T19:50:22.883Z,23.23
2024-02-19T19:55:43.788Z,24.25
2024-02-19T20:01:05.025Z,18.58
2024-02-19T20:06:26.101Z,14.55
2024-02-19T20:11:47.338Z,21.25
2024-02-19T20:17:08.332Z,14.57
2024-02-19T20:22:29.656Z,17.52
2024-02-19T20:27:50.653Z,22.38
2024-02-19T20:33:12.001Z,19.10
2024-02-19T20:38:33.334Z,20.35
2024-02-19T20:43:54.634Z,24.25
2024-02-19T20:49:15.840Z,18.73
2024-02-19T20:54:36.735Z,20.23
2024-02-19T20:59:57.848Z,25.00
2024-02-19T21:05:19.014Z,22.55
2024-02-19T21:10:40.223Z,17.05
2024-02-19T21:16:01.191Z,24.77
2024-02-19T21:21:30.044Z,26.88
2024-02-19T21:26:58.214Z,28.07
2024-02-19T21:32:21.568Z,26.70
2024-02-19T21:37:42.825Z,23.42
2024-02-19T21:43:04.278Z,16.65
2024-02-19T21:48:25.459Z,13.88
2024-02-19T21:53:46.336Z,22.42
2024-02-19T21:59:07.852Z,23.20
2024-02-19T22:04:29.545Z,18.58
2024-02-19T22:09:50.822Z,28.92
2024-02-19T22:15:11.979Z,26.30
2024-02-19T22:20:32.888Z,28.15
2024-02-19T22:25:54.238Z,29.00
2024-02-19T22:31:15.426Z,35.63
2024-02-19T22:36:36.278Z,43.15
2024-02-19T22:41:57.506Z,42.08
2024-02-19T22:47:18.416Z,32.05
2024-02-19T22:52:42.198Z,24.05
2024-02-19T22:58:04.599Z,30.20
2024-02-19T23:03:25.454Z,30.10
2024-02-19T23:08:46.343Z,38.55
2024-02-19T23:14:07.882Z,32.30
2024-02-19T23:19:29.310Z,29.70
2024-02-19T23:24:50.572Z,35.50
2024-02-19T23:30:11.836Z,34.45
2024-02-19T23:35:32.972Z,36.92
2024-02-19T23:40:54.137Z,33.67
2024-02-19T23:46:15.163Z,35.42
2024-02-19T23:51:36.267Z,29.42
2024-02-19T23:56:58.275Z,33.90
